Time;durP1;ratioP1;P1;durP2;ratioP2;P2;SDS_P1;SDS_P2;PMS_P1;PMS_P2;Temp;Humidity;BMP_temperature;BMP_pressure;BME280_temperature;BME280_humidity;BME280_pressure;Samples;Min_cycle;Max_cycle;Signal;HPM_P1;HPM_P2
2022/12/20 00:01:59;;;;;;;33.40;16.38;;;0.90;90.80;;;;;;5059159;28;20499;-58
2022/12/20 00:04:26;;;;;;;38.05;17.83;;;1.00;91.40;;;;;;5064872;28;20052;-60
2022/12/20 00:06:53;;;;;;;37.72;17.70;;;1.00;91.40;;;;;;5065075;28;20052;-58
2022/12/20 00:09:20;;;;;;;34.13;16.10;;;1.00;91.50;;;;;;5067503;28;20102;-60
2022/12/20 00:11:47;;;;;;;29.63;16.15;;;1.00;91.30;;;;;;5068309;28;20049;-59
2022/12/20 00:14:15;;;;;;;32.50;16.10;;;1.00;91.40;;;;;;5069412;28;20402;-59
2022/12/20 00:16:43;;;;;;;31.40;16.02;;;1.10;91.70;;;;;;5069157;28;20477;-60
2022/12/20 00:19:11;;;;;;;37.15;18.13;;;1.10;91.40;;;;;;5067857;28;20414;-58
2022/12/20 00:21:39;;;;;;;33.85;16.67;;;1.10;91.70;;;;;;5067526;28;20044;-60
2022/12/20 00:24:07;;;;;;;32.53;15.40;;;1.10;91.60;;;;;;5067289;28;20049;-62
2022/12/20 00:26:37;;;;;;;33.78;15.88;;;1.10;91.70;;;;;;5068195;28;20051;-60
2022/12/20 00:29:06;;;;;;;32.28;15.35;;;1.20;91.70;;;;;;5067302;28;20067;-61
2022/12/20 00:31:34;;;;;;;33.45;15.82;;;1.10;91.50;;;;;;5069354;28;20048;-60
2022/12/20 00:34:02;;;;;;;32.53;15.30;;;1.10;91.60;;;;;;5068691;28;20321;-62
2022/12/20 00:36:32;;;;;;;33.10;15.30;;;1.10;91.70;;;;;;5049583;28;20376;-59
2022/12/20 00:39:01;;;;;;;33.53;16.13;;;1.10;91.70;;;;;;5048447;28;20140;-60
2022/12/20 00:41:31;;;;;;;34.47;15.40;;;1.10;91.30;;;;;;5068361;28;20044;-61
2022/12/20 00:43:57;;;;;;;32.78;17.00;;;1.20;91.90;;;;;;5066989;28;20057;-61
2022/12/20 00:46:25;;;;;;;36.65;16.55;;;1.10;91.70;;;;;;5068476;28;20049;-63
2022/12/20 00:48:53;;;;;;;36.17;17.05;;;1.10;91.70;;;;;;5067625;28;20090;-62
2022/12/20 00:51:23;;;;;;;33.15;16.60;;;1.20;91.70;;;;;;5068300;28;20106;-63
2022/12/20 00:53:50;;;;;;;34.40;16.83;;;1.10;91.50;;;;;;5040420;28;20457;-63
2022/12/20 00:56:17;;;;;;;36.05;17.20;;;1.10;91.60;;;;;;5047910;28;20391;-62
2022/12/20 00:58:47;;;;;;;32.85;15.68;;;1.20;91.90;;;;;;5067385;28;20040;-63
2022/12/20 01:01:17;;;;;;;35.20;15.75;;;1.20;91.80;;;;;;5069150;28;20037;-62
2022/12/20 01:03:44;;;;;;;36.67;17.27;;;1.20;91.60;;;;;;5065995;28;20505;-64
2022/12/20 01:06:14;;;;;;;34.70;16.77;;;1.20;92.00;;;;;;5068340;28;20855;-64
2022/12/20 01:08:42;;;;;;;32.30;15.95;;;1.20;92.10;;;;;;5048840;28;20102;-63
2022/12/20 01:11:13;;;;;;;30.92;15.45;;;1.20;92.00;;;;;;5067778;28;20065;-62
2022/12/20 01:13:44;;;;;;;32.45;16.27;;;1.30;91.90;;;;;;5066356;28;20040;-63
2022/12/20 01:16:14;;;;;;;31.40;16.38;;;1.30;91.90;;;;;;5064418;28;20041;-69
2022/12/20 01:18:41;;;;;;;38.73;17.17;;;1.30;92.20;;;;;;5067372;28;20051;-64
2022/12/20 01:21:10;;;;;;;36.95;16.67;;;1.30;91.90;;;;;;5066317;28;20462;-63
2022/12/20 01:23:38;;;;;;;40.05;17.92;;;1.30;91.90;;;;;;5067128;28;20049;-63
2022/12/20 01:26:09;;;;;;;34.55;16.55;;;1.30;92.00;;;;;;5064988;28;20045;-63
2022/12/20 01:28:37;;;;;;;33.17;16.40;;;1.30;92.10;;;;;;5064265;28;20068;-65
2022/12/20 01:31:07;;;;;;;33.55;16.55;;;1.30;92.10;;;;;;5068679;28;20581;-64
2022/12/20 01:33:34;;;;;;;29.85;15.70;;;1.40;92.30;;;;;;5049614;28;20045;-64
2022/12/20 01:36:04;;;;;;;32.97;16.42;;;1.40;92.20;;;;;;5066999;28;20044;-63
2022/12/20 01:38:31;;;;;;;35.30;16.67;;;1.40;92.20;;;;;;5070451;28;20048;-64
2022/12/20 01:40:58;;;;;;;34.58;15.77;;;1.40;92.10;;;;;;5059386;28;20041;-65
2022/12/20 01:43:45;;;;;;;31.63;16.05;;;1.50;92.00;;;;;;5055056;28;20514;-62
2022/12/20 01:46:12;;;;;;;31.58;15.20;;;1.50;92.10;;;;;;5055676;28;20055;-60
2022/12/20 01:48:40;;;;;;;30.73;15.10;;;1.50;92.10;;;;;;5037089;28;20073;-60
2022/12/20 01:51:08;;;;;;;32.88;15.43;;;1.50;92.10;;;;;;5056398;28;20868;-61
2022/12/20 01:53:35;;;;;;;35.40;17.42;;;1.50;92.10;;;;;;5057054;28;20063;-60
2022/12/20 01:56:05;;;;;;;32.50;16.63;;;1.50;92.20;;;;;;5040329;28;20049;-60
2022/12/20 01:58:34;;;;;;;;;;;1.50;92.00;;;;;;5057729;28;20132;-61
2022/12/20 02:01:02;;;;;;;29.85;14.60;;;1.60;92.00;;;;;;5041622;28;19928;-61
2022/12/20 02:03:32;;;;;;;29.08;14.93;;;1.50;92.00;;;;;;5058160;28;20495;-62
2022/12/20 02:06:14;;;;;;;34.20;15.27;;;1.60;91.90;;;;;;5060197;28;20470;-61
2022/12/20 02:08:41;;;;;;;31.98;15.27;;;1.60;91.90;;;;;;5056441;28;20420;-62
2022/12/20 02:11:21;;;;;;;34.03;16.73;;;1.60;91.90;;;;;;5060000;28;20123;-60
2022/12/20 02:13:59;;;;;;;30.57;15.73;;;1.60;91.90;;;;;;5040031;28;20056;-62
2022/12/20 02:16:29;;;;;;;31.98;15.63;;;1.60;91.80;;;;;;5057118;28;20044;-59
2022/12/20 02:19:04;;;;;;;28.13;15.05;;;1.60;91.80;;;;;;5058739;28;20090;-58
2022/12/20 02:21:35;;;;;;;29.90;15.13;;;1.70;91.90;;;;;;5056828;28;20049;-59
2022/12/20 02:24:40;;;;;;;32.50;15.95;;;1.60;91.60;;;;;;5058144;28;20479;-58
2022/12/20 02:27:31;;;;;;;30.08;14.90;;;1.70;91.90;;;;;;5058298;28;20127;-59
2022/12/20 02:30:09;;;;;;;29.95;14.68;;;1.60;91.90;;;;;;5058262;28;20545;-58
2022/12/20 02:32:41;;;;;;;28.98;14.50;;;1.70;91.90;;;;;;5037818;28;20053;-58
2022/12/20 02:35:10;;;;;;;29.13;14.65;;;1.70;91.80;;;;;;5038578;28;20048;-59
2022/12/20 02:37:46;;;;;;;35.38;17.42;;;1.70;91.80;;;;;;5037206;28;20503;-60
2022/12/20 02:40:17;;;;;;;30.42;15.45;;;1.70;91.70;;;;;;4993384;28;1374810;-59
2022/12/20 02:42:45;;;;;;;36.47;16.50;;;1.70;91.70;;;;;;5068557;28;20048;-59
2022/12/20 02:45:16;;;;;;;30.77;15.88;;;1.70;91.70;;;;;;5071316;28;20051;-59
2022/12/20 02:47:49;;;;;;;29.98;15.05;;;1.70;91.80;;;;;;5050446;28;20123;-59
2022/12/20 02:50:21;;;;;;;30.58;15.02;;;1.70;91.80;;;;;;5052016;28;20127;-58
2022/12/20 02:52:49;;;;;;;34.70;16.23;;;1.70;91.70;;;;;;5069003;28;20051;-58
2022/12/20 02:55:17;;;;;;;29.70;14.55;;;1.70;91.90;;;;;;5051527;28;20055;-59
2022/12/20 02:57:50;;;;;;;27.48;14.73;;;1.70;91.80;;;;;;5051333;28;20076;-59
2022/12/20 03:00:20;;;;;;;32.15;16.15;;;1.70;91.90;;;;;;5050865;28;20477;-58
2022/12/20 03:05:37;;;;;;;26.85;14.75;;;1.70;91.90;;;;;;5069276;28;20052;-60
2022/12/20 03:08:04;;;;;;;31.67;15.23;;;1.70;92.00;;;;;;5050138;28;20036;-60
2022/12/20 03:10:31;;;;;;;33.70;16.08;;;1.70;91.80;;;;;;5050215;28;20072;-59
2022/12/20 03:12:58;;;;;;;33.13;15.20;;;1.70;91.80;;;;;;5051593;28;20041;-59
2022/12/20 03:15:26;;;;;;;32.38;15.70;;;1.70;91.90;;;;;;5049690;28;20048;-59
2022/12/20 03:17:56;;;;;;;29.27;15.15;;;1.70;91.80;;;;;;5050598;28;20048;-59
2022/12/20 03:20:23;;;;;;;30.55;14.43;;;1.70;91.70;;;;;;5051231;28;20594;-58
2022/12/20 03:22:53;;;;;;;26.77;14.10;;;1.70;91.80;;;;;;5051040;28;20114;-58
2022/12/20 03:25:20;;;;;;;29.00;14.95;;;1.70;91.80;;;;;;5064419;28;20052;-59
2022/12/20 03:27:48;;;;;;;31.77;14.95;;;1.70;91.90;;;;;;5050023;28;20040;-59
2022/12/20 03:30:17;;;;;;;31.08;15.80;;;1.70;91.80;;;;;;5069468;28;20056;-58
2022/12/20 03:32:46;;;;;;;28.55;14.95;;;1.70;91.90;;;;;;5046545;28;20040;-59
2022/12/20 03:35:13;;;;;;;30.38;15.13;;;1.70;91.70;;;;;;5069249;28;20483;-59
2022/12/20 03:37:41;;;;;;;32.28;15.35;;;1.60;91.70;;;;;;5051348;28;20140;-59
2022/12/20 03:40:10;;;;;;;30.15;14.65;;;1.70;91.90;;;;;;5042543;28;20044;-58
2022/12/20 03:42:37;;;;;;;29.50;15.00;;;1.70;92.00;;;;;;5048976;28;20074;-62
2022/12/20 03:45:05;;;;;;;30.27;14.15;;;1.70;91.70;;;;;;5060404;28;20482;-59
2022/12/20 03:47:33;;;;;;;26.55;13.85;;;1.70;91.80;;;;;;5043794;28;20050;-59
2022/12/20 03:50:03;;;;;;;31.45;14.90;;;1.60;91.70;;;;;;5050002;28;20129;-58
2022/12/20 03:52:33;;;;;;;30.55;14.15;;;1.70;91.80;;;;;;5049242;28;20048;-59
2022/12/20 03:55:00;;;;;;;29.92;15.65;;;1.70;91.90;;;;;;5050431;28;20060;-59
2022/12/20 03:57:36;;;;;;;31.20;14.63;;;1.70;91.80;;;;;;5068245;28;20048;-59
2022/12/20 04:00:07;;;;;;;31.38;14.77;;;1.70;91.90;;;;;;5048001;28;20044;-59
2022/12/20 04:02:41;;;;;;;27.85;13.82;;;1.70;91.90;;;;;;5068106;28;20091;-59
2022/12/20 04:05:11;;;;;;;29.95;14.95;;;1.70;91.80;;;;;;5049155;28;20501;-59
2022/12/20 04:07:38;;;;;;;27.33;13.82;;;1.70;91.90;;;;;;5049871;28;20932;-59
2022/12/20 04:10:07;;;;;;;29.90;13.85;;;1.70;91.90;;;;;;5059014;28;20419;-58
2022/12/20 04:12:33;;;;;;;28.00;14.70;;;1.70;91.80;;;;;;5037645;28;20063;-58
2022/12/20 04:15:01;;;;;;;29.50;14.60;;;1.70;91.80;;;;;;5056799;28;20052;-60
2022/12/20 04:17:29;;;;;;;30.65;14.52;;;1.70;91.90;;;;;;5066046;28;20055;-63
2022/12/20 04:19:56;;;;;;;29.40;15.88;;;1.70;91.90;;;;;;5049076;28;20059;-63
2022/12/20 04:22:24;;;;;;;29.90;15.25;;;1.70;91.70;;;;;;5047707;28;20078;-64
2022/12/20 04:25:04;;;;;;;;;;;1.70;91.60;;;;;;5050477;28;20080;-63
2022/12/20 04:27:36;;;;;;;26.38;13.70;;;1.70;91.60;;;;;;5063392;28;20374;-63
2022/12/20 04:30:07;;;;;;;27.48;14.30;;;1.70;91.80;;;;;;5048042;28;20052;-64
2022/12/20 04:32:34;;;;;;;28.08;13.20;;;1.70;91.80;;;;;;5068438;28;20096;-63
2022/12/20 04:35:02;;;;;;;31.60;14.90;;;1.70;91.90;;;;;;5049986;28;20491;-64
2022/12/20 04:37:38;;;;;;;30.02;14.25;;;1.70;91.80;;;;;;5067973;28;20045;-65
2022/12/20 04:40:06;;;;;;;27.98;14.20;;;1.70;91.60;;;;;;5038549;28;20044;-64
2022/12/20 04:42:47;;;;;;;27.10;13.70;;;1.70;91.70;;;;;;5039648;28;20507;-63
2022/12/20 04:45:15;;;;;;;29.50;14.57;;;1.70;91.70;;;;;;5038491;28;20053;-64
2022/12/20 04:47:42;;;;;;;32.22;16.13;;;1.70;91.70;;;;;;5037425;28;20491;-62
2022/12/20 04:50:11;;;;;;;26.30;13.85;;;1.70;92.00;;;;;;5038247;28;20040;-64
2022/12/20 04:55:29;;;;;;;29.98;14.15;;;1.80;91.80;;;;;;5038089;28;20045;-66
2022/12/20 04:57:58;;;;;;;32.25;15.23;;;1.80;91.90;;;;;;5039282;28;20045;-65
2022/12/20 05:00:25;;;;;;;33.20;15.40;;;1.80;91.80;;;;;;5023681;28;20049;-64
2022/12/20 05:02:59;;;;;;;30.38;15.57;;;1.80;91.80;;;;;;5023609;28;20082;-65
2022/12/20 05:05:27;;;;;;;29.88;15.00;;;1.80;91.70;;;;;;5038103;28;20055;-65
2022/12/20 05:07:59;;;;;;;27.35;14.40;;;1.80;91.90;;;;;;5037918;28;20117;-65
2022/12/20 05:10:27;;;;;;;30.43;15.10;;;1.80;91.80;;;;;;5036721;28;20413;-64
2022/12/20 05:12:56;;;;;;;31.30;15.57;;;1.80;91.80;;;;;;5042043;28;20041;-63
2022/12/20 05:15:33;;;;;;;30.48;15.20;;;1.80;91.90;;;;;;5041983;28;20041;-62
2022/12/20 05:18:00;;;;;;;30.38;14.88;;;1.80;91.80;;;;;;5041754;28;20151;-62
2022/12/20 05:20:35;;;;;;;27.48;14.40;;;1.80;91.70;;;;;;5033366;28;20064;-64
2022/12/20 05:28:38;;;;;;;30.25;15.40;;;1.80;91.90;;;;;;5025897;28;20056;-63
2022/12/20 05:31:05;;;;;;;33.00;15.38;;;1.80;92.00;;;;;;5042849;28;20057;-62
2022/12/20 05:33:35;;;;;;;29.48;14.52;;;1.80;92.00;;;;;;5038169;28;20045;-62
2022/12/20 05:36:03;;;;;;;28.85;15.77;;;1.80;91.90;;;;;;5041890;28;20044;-63
2022/12/20 05:38:32;;;;;;;32.22;14.25;;;1.90;91.90;;;;;;5023333;28;20156;-64
2022/12/20 05:41:00;;;;;;;30.02;14.43;;;1.90;92.00;;;;;;5041235;28;20052;-65
2022/12/20 05:43:28;;;;;;;32.65;15.55;;;1.90;91.80;;;;;;5042330;28;20045;-65
2022/12/20 05:45:56;;;;;;;30.63;14.82;;;1.90;91.80;;;;;;5040388;28;20053;-69
2022/12/20 05:48:32;;;;;;;29.35;14.82;;;1.90;91.90;;;;;;5041463;28;20498;-69
2022/12/20 05:51:00;;;;;;;30.77;16.17;;;1.90;91.80;;;;;;5040505;28;20124;-70
2022/12/20 05:53:31;;;;;;;29.83;14.57;;;1.90;91.80;;;;;;5058678;28;20095;-69
2022/12/20 05:56:02;;;;;;;31.13;15.95;;;1.90;91.90;;;;;;5040776;28;20128;-69
2022/12/20 05:58:37;;;;;;;27.67;14.70;;;1.90;91.90;;;;;;5039637;28;20052;-70
2022/12/20 06:01:07;;;;;;;28.60;14.93;;;1.90;91.90;;;;;;5046494;28;20110;-70
2022/12/20 06:03:38;;;;;;;30.65;15.15;;;1.90;91.50;;;;;;5055980;28;20044;-69
2022/12/20 06:06:08;;;;;;;31.25;14.50;;;1.90;91.90;;;;;;5038958;28;20677;-70
2022/12/20 06:08:37;;;;;;;31.95;15.07;;;1.90;91.70;;;;;;5057918;28;20139;-69
2022/12/20 06:11:07;;;;;;;31.10;15.45;;;2.00;91.90;;;;;;5042370;28;20518;-60
2022/12/20 06:13:44;;;;;;;29.70;15.10;;;2.00;91.90;;;;;;5040670;28;20892;-61
2022/12/20 06:16:11;;;;;;;28.88;15.88;;;2.00;91.80;;;;;;5040634;28;20040;-61
2022/12/20 06:18:38;;;;;;;25.13;14.30;;;2.00;91.80;;;;;;5040699;28;20411;-61
2022/12/20 06:21:06;;;;;;;29.83;14.38;;;2.00;91.80;;;;;;5032987;28;20048;-61
2022/12/20 06:23:33;;;;;;;32.42;16.58;;;2.00;91.90;;;;;;5042335;28;20071;-61
2022/12/20 06:26:08;;;;;;;28.50;15.20;;;2.00;91.90;;;;;;5056412;28;20062;-62
2022/12/20 06:28:42;;;;;;;30.10;15.75;;;2.00;92.00;;;;;;5056786;28;20094;-60
2022/12/20 06:31:11;;;;;;;29.85;15.25;;;2.00;91.90;;;;;;5024073;28;20057;-64
2022/12/20 06:33:42;;;;;;;31.48;15.73;;;2.00;91.50;;;;;;5040815;28;20045;-65
2022/12/20 06:36:09;;;;;;;30.98;16.42;;;2.00;91.70;;;;;;5053743;28;20068;-66
2022/12/20 06:38:37;;;;;;;26.13;14.15;;;2.00;91.90;;;;;;5041041;28;20080;-67
2022/12/20 06:41:04;;;;;;;29.23;14.77;;;2.00;91.80;;;;;;5060761;28;20133;-66
2022/12/20 06:43:34;;;;;;;32.55;15.10;;;2.00;91.80;;;;;;5050318;28;20044;-65
2022/12/20 06:46:01;;;;;;;30.48;15.30;;;2.00;91.90;;;;;;5070718;28;20076;-60
2022/12/20 06:48:28;;;;;;;27.38;14.90;;;2.10;91.80;;;;;;5069372;28;20859;-62
2022/12/20 06:50:55;;;;;;;31.73;16.58;;;2.00;91.90;;;;;;5043709;28;20044;-63
2022/12/20 06:53:22;;;;;;;31.25;15.07;;;2.10;91.80;;;;;;5051278;28;20052;-62
2022/12/20 06:55:51;;;;;;;25.65;13.68;;;2.10;91.90;;;;;;5069724;28;20049;-69
2022/12/20 06:58:19;;;;;;;28.60;15.40;;;2.10;91.80;;;;;;5042034;28;20051;-69
2022/12/20 07:00:49;;;;;;;26.70;13.90;;;2.10;91.90;;;;;;5052237;28;20121;-58
2022/12/20 07:03:16;;;;;;;30.90;15.75;;;2.10;91.90;;;;;;5070032;28;20044;-57
2022/12/20 07:05:43;;;;;;;31.35;15.55;;;2.10;91.80;;;;;;5069699;28;20055;-59
2022/12/20 07:08:10;;;;;;;31.98;16.42;;;2.10;91.80;;;;;;5069818;28;20060;-58
2022/12/20 07:10:37;;;;;;;26.13;14.38;;;2.10;91.80;;;;;;5067534;28;20052;-59
2022/12/20 07:13:04;;;;;;;27.15;14.15;;;2.10;91.90;;;;;;5070708;28;20045;-61
2022/12/20 07:15:31;;;;;;;26.42;14.15;;;2.10;91.80;;;;;;5069191;28;20055;-67
2022/12/20 07:18:00;;;;;;;28.60;14.98;;;2.10;91.70;;;;;;5070561;28;20055;-67
2022/12/20 07:20:29;;;;;;;;;;;2.10;91.70;;;;;;5069892;28;20052;-69
2022/12/20 07:22:55;;;;;;;26.48;14.23;;;2.20;91.90;;;;;;5069907;28;19924;-70
2022/12/20 07:25:23;;;;;;;27.77;14.88;;;2.20;91.90;;;;;;5069688;28;20056;-70
2022/12/20 07:27:50;;;;;;;26.02;14.45;;;2.20;91.80;;;;;;5069636;28;20140;-70
2022/12/20 07:30:20;;;;;;;31.10;16.27;;;2.20;92.00;;;;;;5068934;28;20502;-69
2022/12/20 07:32:48;;;;;;;28.38;14.90;;;2.20;91.90;;;;;;5068771;28;20525;-69
2022/12/20 07:35:17;;;;;;;27.73;14.65;;;2.20;91.90;;;;;;5068222;28;20055;-68
2022/12/20 07:37:44;;;;;;;26.40;13.68;;;2.20;91.90;;;;;;5067809;28;20102;-67
2022/12/20 07:40:13;;;;;;;30.48;14.93;;;2.20;92.00;;;;;;5064494;28;20066;-66
2022/12/20 07:42:40;;;;;;;27.80;14.68;;;2.20;92.00;;;;;;5066499;28;20451;-67
2022/12/20 07:45:08;;;;;;;29.92;15.30;;;2.30;92.10;;;;;;5067101;28;20049;-69
2022/12/20 07:47:37;;;;;;;30.90;15.38;;;2.30;92.00;;;;;;5069016;28;20040;-67
2022/12/20 07:50:04;;;;;;;27.85;14.40;;;2.30;92.00;;;;;;5055560;28;20055;-68
2022/12/20 07:52:34;;;;;;;26.58;14.95;;;2.30;92.00;;;;;;5068631;28;20048;-61
2022/12/20 07:55:03;;;;;;;28.83;15.13;;;2.30;92.00;;;;;;5068643;28;20475;-60
2022/12/20 07:57:35;;;;;;;24.20;15.02;;;2.30;92.00;;;;;;5067670;28;20459;-61
2022/12/20 08:00:04;;;;;;;32.33;15.55;;;2.40;92.00;;;;;;5069152;28;20068;-60
2022/12/20 08:02:42;;;;;;;27.50;14.75;;;2.40;92.00;;;;;;5066275;28;20131;-61
2022/12/20 08:05:10;;;;;;;28.33;14.48;;;2.40;91.90;;;;;;5069073;28;20044;-60
2022/12/20 08:07:39;;;;;;;31.15;14.77;;;2.40;92.00;;;;;;5066877;28;20052;-62
2022/12/20 08:10:11;;;;;;;31.48;14.98;;;2.40;92.00;;;;;;5068915;28;20067;-60
2022/12/20 08:12:39;;;;;;;28.33;14.95;;;2.40;91.90;;;;;;5068134;28;20684;-60
2022/12/20 08:15:07;;;;;;;27.85;15.15;;;2.40;91.90;;;;;;5067962;28;20049;-60
2022/12/20 08:17:34;;;;;;;31.85;15.48;;;2.40;92.00;;;;;;5067192;28;20052;-60
2022/12/20 08:20:01;;;;;;;28.15;15.32;;;2.50;92.00;;;;;;5068635;28;20051;-61
2022/12/20 08:22:30;;;;;;;30.67;14.27;;;2.50;92.00;;;;;;5068969;28;20081;-58
2022/12/20 08:24:58;;;;;;;29.63;15.25;;;2.50;92.00;;;;;;5067154;28;20052;-60
2022/12/20 08:27:25;;;;;;;29.65;15.40;;;2.50;92.00;;;;;;5065857;28;20048;-61
2022/12/20 08:29:52;;;;;;;27.27;15.10;;;2.50;91.80;;;;;;5067380;28;20044;-61
2022/12/20 08:32:19;;;;;;;28.15;14.52;;;2.60;91.90;;;;;;5067746;28;20037;-61
2022/12/20 08:34:47;;;;;;;29.05;14.75;;;2.60;92.00;;;;;;5064054;28;20051;-61
2022/12/20 08:37:16;;;;;;;27.90;14.88;;;2.60;91.90;;;;;;5062950;28;20056;-60
2022/12/20 08:39:43;;;;;;;26.70;14.63;;;2.60;91.80;;;;;;5066665;28;20049;-61
2022/12/20 08:42:12;;;;;;;25.80;14.63;;;2.70;91.80;;;;;;5052478;28;20502;-64
2022/12/20 08:44:39;;;;;;;27.23;14.85;;;2.70;91.80;;;;;;5054891;28;20483;-62
2022/12/20 08:47:05;;;;;;;29.95;15.38;;;2.70;91.70;;;;;;5055514;28;20126;-62
2022/12/20 08:49:32;;;;;;;27.35;15.25;;;2.70;91.70;;;;;;5054091;28;20057;-63
2022/12/20 08:51:59;;;;;;;29.90;15.10;;;2.70;91.60;;;;;;5054147;28;20069;-69
2022/12/20 08:54:26;;;;;;;29.10;14.70;;;2.80;91.70;;;;;;5055549;28;20060;-65
2022/12/20 08:56:53;;;;;;;32.20;14.13;;;2.80;91.80;;;;;;5055205;28;20044;-61
2022/12/20 08:59:21;;;;;;;28.52;15.20;;;2.80;91.70;;;;;;5050433;28;20056;-60
2022/12/20 09:01:49;;;;;;;31.65;16.02;;;2.80;91.70;;;;;;5051851;28;20094;-70
2022/12/20 09:04:16;;;;;;;30.15;15.18;;;2.90;91.60;;;;;;5053929;28;20081;-69
2022/12/20 09:06:45;;;;;;;29.02;14.88;;;2.90;91.60;;;;;;5053436;28;20056;-69
2022/12/20 09:09:12;;;;;;;28.88;14.90;;;2.90;91.60;;;;;;5049570;28;20491;-70
2022/12/20 09:11:39;;;;;;;28.40;15.10;;;2.90;91.50;;;;;;5052304;28;20053;-69
2022/12/20 09:14:07;;;;;;;27.95;15.35;;;3.00;91.40;;;;;;5055024;28;20067;-69
2022/12/20 09:16:35;;;;;;;26.75;15.27;;;3.00;91.40;;;;;;5053264;28;20143;-69
2022/12/20 09:19:04;;;;;;;29.40;14.88;;;3.00;91.50;;;;;;5050760;28;20431;-69
2022/12/20 09:21:30;;;;;;;26.85;15.00;;;3.00;91.40;;;;;;5053034;28;20064;-70
2022/12/20 09:23:58;;;;;;;29.90;15.57;;;3.10;91.60;;;;;;5053995;28;20041;-70
2022/12/20 09:26:25;;;;;;;24.48;13.63;;;3.10;91.70;;;;;;5055122;28;20410;-69
2022/12/20 09:28:52;;;;;;;29.48;14.70;;;3.10;91.60;;;;;;5054260;28;20049;-70
2022/12/20 09:31:21;;;;;;;28.67;15.35;;;3.10;91.60;;;;;;5051077;28;20045;-60
2022/12/20 09:33:49;;;;;;;29.23;15.02;;;3.10;91.60;;;;;;5053274;28;20045;-60
2022/12/20 09:36:20;;;;;;;30.17;16.33;;;3.10;91.70;;;;;;5051616;28;20134;-59
2022/12/20 09:38:47;;;;;;;30.50;16.15;;;3.10;91.70;;;;;;5054215;28;20055;-60
2022/12/20 09:41:26;;;;;;;27.08;14.25;;;3.10;91.70;;;;;;5053828;28;20045;-63
2022/12/20 09:43:53;;;;;;;27.75;14.18;;;3.10;91.60;;;;;;5051331;28;20045;-63
2022/12/20 09:46:20;;;;;;;25.83;14.65;;;3.10;91.70;;;;;;5052426;28;20056;-62
2022/12/20 09:48:47;;;;;;;28.52;15.10;;;3.10;91.70;;;;;;5055827;28;20453;-61
2022/12/20 09:51:29;;;;;;;22.65;14.45;;;3.20;91.60;;;;;;5053778;28;20057;-59
2022/12/20 09:54:07;;;;;;;26.30;14.35;;;3.20;91.50;;;;;;5049673;28;20049;-60
2022/12/20 09:56:37;;;;;;;25.55;14.50;;;3.20;91.50;;;;;;5057795;28;20044;-63
2022/12/20 09:59:08;;;;;;;26.75;13.85;;;3.20;91.60;;;;;;5043929;28;20110;-63
2022/12/20 10:01:35;;;;;;;28.40;14.25;;;3.20;91.50;;;;;;5054366;28;20053;-63
2022/12/20 10:04:07;;;;;;;25.83;14.35;;;3.30;91.50;;;;;;5055338;28;20060;-64
2022/12/20 10:06:48;;;;;;;28.65;14.82;;;3.30;91.50;;;;;;5058493;28;20056;-70
2022/12/20 10:09:22;;;;;;;;;;;3.30;91.40;;;;;;5060144;28;20044;-69
2022/12/20 10:12:01;;;;;;;26.23;14.10;;;3.30;91.40;;;;;;5057282;28;20055;-67
2022/12/20 10:14:45;;;;;;;26.35;13.70;;;3.40;91.30;;;;;;5059106;28;20049;-67
2022/12/20 10:17:17;;;;;;;29.83;14.70;;;3.40;91.20;;;;;;5059683;28;20049;-68
2022/12/20 10:20:12;;;;;;;26.95;14.60;;;3.40;91.20;;;;;;5058602;28;20048;-69
2022/12/20 10:22:46;;;;;;;25.52;13.88;;;3.40;91.10;;;;;;5057998;28;20056;-69
2022/12/20 10:25:17;;;;;;;24.98;14.23;;;3.40;91.00;;;;;;5053017;28;20053;-69
2022/12/20 10:27:46;;;;;;;25.00;14.20;;;3.50;91.10;;;;;;5056565;28;20040;-70
2022/12/20 10:30:15;;;;;;;26.08;14.05;;;3.50;91.00;;;;;;5056220;28;20045;-70
2022/12/20 10:32:45;;;;;;;28.25;13.77;;;3.50;90.90;;;;;;5049459;28;20081;-69
2022/12/20 10:35:36;;;;;;;25.30;13.93;;;3.50;90.90;;;;;;5052562;28;20068;-69
2022/12/20 10:38:06;;;;;;;28.55;14.15;;;3.60;91.00;;;;;;5049848;28;20041;-69
2022/12/20 10:40:36;;;;;;;30.50;14.23;;;3.60;90.90;;;;;;5048183;28;20088;-69
2022/12/20 10:43:05;;;;;;;25.63;14.02;;;3.60;90.80;;;;;;5056927;28;20051;-69
2022/12/20 10:45:36;;;;;;;25.92;14.25;;;3.70;90.90;;;;;;5058012;28;20059;-68
2022/12/20 10:48:05;;;;;;;23.38;13.45;;;3.60;90.80;;;;;;5058513;28;20047;-69
2022/12/20 10:50:33;;;;;;;28.30;14.27;;;3.70;90.80;;;;;;5059129;28;20044;-69
2022/12/20 10:53:18;;;;;;;26.35;13.73;;;3.60;90.80;;;;;;5054447;28;20932;-68
2022/12/20 10:55:45;;;;;;;25.67;14.05;;;3.60;90.80;;;;;;5058495;28;20072;-60
2022/12/20 10:58:15;;;;;;;25.77;13.20;;;3.70;90.80;;;;;;5060596;28;20376;-60
2022/12/20 11:00:42;;;;;;;21.73;12.98;;;3.70;90.70;;;;;;5058061;28;20045;-58
2022/12/20 11:03:17;;;;;;;22.17;13.07;;;3.70;90.80;;;;;;5057810;28;20049;-61
2022/12/20 11:05:56;;;;;;;24.50;13.25;;;3.70;90.70;;;;;;5058700;28;20045;-60
2022/12/20 11:08:26;;;;;;;24.67;13.73;;;3.70;90.70;;;;;;5058518;28;20072;-60
2022/12/20 11:11:12;;;;;;;24.77;12.93;;;3.70;90.70;;;;;;5058110;28;20047;-65
2022/12/20 11:13:40;;;;;;;24.67;13.15;;;3.70;90.60;;;;;;5052326;28;20479;-63
2022/12/20 11:16:23;;;;;;;25.55;14.65;;;3.70;90.60;;;;;;5060404;28;20045;-59
2022/12/20 11:18:56;;;;;;;24.60;13.52;;;3.70;90.50;;;;;;5057304;28;20037;-60
2022/12/20 11:21:31;;;;;;;22.23;11.75;;;3.70;90.50;;;;;;5059616;28;20049;-59
2022/12/20 11:24:08;;;;;;;27.42;13.52;;;3.70;90.50;;;;;;5057606;28;20064;-61
2022/12/20 11:26:50;;;;;;;28.27;13.73;;;3.70;90.50;;;;;;5057858;28;20060;-70
2022/12/20 11:29:32;;;;;;;25.35;12.98;;;3.70;90.50;;;;;;5059394;28;20048;-70
2022/12/20 11:32:07;;;;;;;24.52;13.50;;;3.80;90.40;;;;;;5058731;28;20071;-70
2022/12/20 11:34:44;;;;;;;25.63;13.73;;;3.80;90.40;;;;;;5058911;28;20053;-70
2022/12/20 11:37:19;;;;;;;26.05;14.07;;;3.80;90.40;;;;;;5058538;28;20040;-58
2022/12/20 11:40:04;;;;;;;24.92;14.20;;;3.80;90.30;;;;;;5055836;28;20052;-57
2022/12/20 11:42:49;;;;;;;22.25;12.98;;;3.90;90.30;;;;;;5048624;28;20135;-66
2022/12/20 11:45:24;;;;;;;21.40;12.63;;;3.90;90.20;;;;;;5049978;28;20064;-68
2022/12/20 11:48:28;;;;;;;26.55;14.02;;;3.90;90.20;;;;;;5043767;28;20048;-66
2022/12/20 11:51:03;;;;;;;26.10;14.60;;;3.90;90.30;;;;;;5049786;28;20415;-63
2022/12/20 11:53:35;;;;;;;23.60;13.05;;;3.90;90.30;;;;;;5048486;28;20063;-63
2022/12/20 11:56:10;;;;;;;26.42;13.95;;;3.90;90.20;;;;;;5048820;28;20057;-60
2022/12/20 11:58:48;;;;;;;24.10;13.40;;;3.90;90.10;;;;;;5048435;28;20435;-61
2022/12/20 12:01:18;;;;;;;23.02;12.50;;;3.90;90.10;;;;;;5033110;28;20041;-60
2022/12/20 12:03:57;;;;;;;26.65;13.70;;;3.90;90.10;;;;;;5049162;28;20053;-61
2022/12/20 12:06:29;;;;;;;25.48;12.90;;;3.90;90.10;;;;;;5049241;28;20049;-61
2022/12/20 12:09:08;;;;;;;23.33;13.25;;;4.00;90.10;;;;;;5049452;28;20395;-61
2022/12/20 12:11:42;;;;;;;22.40;12.48;;;4.00;90.10;;;;;;5048359;28;20140;-62
2022/12/20 12:14:17;;;;;;;24.80;13.85;;;4.00;90.00;;;;;;5049351;28;20940;-63
2022/12/20 12:16:51;;;;;;;23.95;12.43;;;4.10;90.00;;;;;;5048703;28;20052;-63
2022/12/20 12:19:18;;;;;;;23.02;13.35;;;4.10;90.00;;;;;;5047087;28;20041;-63
2022/12/20 12:21:50;;;;;;;30.60;15.88;;;4.10;89.90;;;;;;5048325;28;20041;-60
2022/12/20 12:24:23;;;;;;;38.28;18.15;;;4.10;90.00;;;;;;5049039;28;20542;-59
2022/12/20 12:26:52;;;;;;;36.25;18.65;;;4.10;89.90;;;;;;5048509;28;20037;-58
2022/12/20 12:29:20;;;;;;;32.28;17.45;;;4.10;89.80;;;;;;5049025;28;20044;-58
2022/12/20 12:31:53;;;;;;;27.90;16.17;;;4.10;89.80;;;;;;5048215;28;20059;-59
2022/12/20 12:34:35;;;;;;;29.95;14.85;;;4.10;89.80;;;;;;5048891;28;20045;-63
2022/12/20 12:37:31;;;;;;;27.67;14.77;;;4.10;89.80;;;;;;5046843;28;20064;-61
2022/12/20 12:40:20;;;;;;;25.08;13.80;;;4.20;89.70;;;;;;5024509;28;20052;-61
2022/12/20 12:43:32;;;;;;;23.80;13.07;;;4.10;89.80;;;;;;5057160;28;20040;-61
2022/12/20 12:46:01;;;;;;;22.40;12.50;;;4.10;89.80;;;;;;5056120;28;20156;-60
2022/12/20 12:48:39;;;;;;;23.85;13.68;;;4.20;89.80;;;;;;5055710;28;20049;-60
2022/12/20 12:51:06;;;;;;;21.48;12.18;;;4.20;89.70;;;;;;5056845;28;20045;-64
2022/12/20 12:53:36;;;;;;;23.05;12.80;;;4.20;89.70;;;;;;5056486;28;20056;-62
2022/12/20 12:56:34;;;;;;;24.48;14.18;;;4.20;89.60;;;;;;5055055;28;20064;-61
2022/12/20 12:59:23;;;;;;;27.35;15.75;;;4.20;89.60;;;;;;5054418;28;20048;-59
2022/12/20 13:01:52;;;;;;;26.30;16.02;;;4.20;89.60;;;;;;5056583;28;20062;-65
2022/12/20 13:04:28;;;;;;;27.98;15.68;;;4.20;89.60;;;;;;5055948;28;20114;-66
2022/12/20 13:07:00;;;;;;;28.85;15.57;;;4.20;89.50;;;;;;5052723;28;20102;-66
2022/12/20 13:09:40;;;;;;;22.83;13.68;;;4.20;89.50;;;;;;5054689;28;20049;-67